Galveston, TX

5:14 PM CDT on September 25, 2016 (GMT -0500)
Galveston.com | | Change Station

Elev 36 ft 29.31 °N, 94.79 °W | Updated 0 second ago

Clear
Clear
81.7 °F
Feels Like 87 °F
N
3.7
Wind Variable Wind from NNW
Gusts 4.0 mph

Today
High -- | Low -- °F
--% Chance of Precip.
Yesterday
High -- | Low -- °F
Precip. -- in
Pressure 29.97 in
Visibility 10.0 miles
Clouds Clear
Heat Index 87 °F
Dew Point 73 °F
Humidity 75%
Rainfall 0.00 in
Snow Depth Not available.
7:09 AM 7:11 PM
Waning Crescent, 24% visible
METAR KGLS 252152Z 27003KT 10SM CLR 28/24 A2997 RMK AO2 RAE2058 SLP148 P0000 T02780244
Pressure 29.97 in
Visibility 10.0 miles
Clouds Clear
Heat Index 87 °F
Dew Point 73 °F
Humidity 75%
Rainfall 0.00 in
Snow Depth Not available.
7:09 AM 7:11 PM
Waning Crescent, 24% visible
METAR KGLS 252152Z 27003KT 10SM CLR 28/24 A2997 RMK AO2 RAE2058 SLP148 P0000 T02780244

10-Day Weather Forecast

Almanac

Astronomy

Sep. 25, 2016 Rise Set
Actual Time
Civil Twilight
Nautical Twilight
Astronomical Twilight
Moon
Length of Visible Light
Length of Day
Tomorrow will be .
, % of the Moon is Illuminated

Today's Extremes

State Highs State Lows

Community

WunderPhotos

Upload Photos

1,941,757 photos uploaded!

WunderBlog® & News

Nearby

Air Quality

  Air Quality AQ Index Pollutant
Not available.

Snow Depth

Station Depth Elevation

Earthquake Activity

City Distance Mag. Time & Date
Minimum magnitude displayed is 2.5.

Coastal Water Temperatures

Place Temperature

Stations

Nearby Weather Stations

Station Location Temp. Windchill Dew Point Humidity Wind Precip. Elev Updated Type
                   

Watches & Warnings

There are currently no watches in effect.